sensor_id;sensor_type;location;lat;lon;timestamp;P1;durP1;ratioP1;P2;durP2;ratioP2
49488;SDS011;35382;51.484;11.476;2023-03-24T00:01:08;4.22;;;2.40;;
49488;SDS011;35382;51.484;11.476;2023-03-24T00:02:49;5.57;;;2.75;;
49488;SDS011;35382;51.484;11.476;2023-03-24T00:04:30;4.07;;;2.50;;
49488;SDS011;35382;51.484;11.476;2023-03-24T00:06:12;4.75;;;2.63;;
49488;SDS011;35382;51.484;11.476;2023-03-24T00:07:53;5.20;;;2.70;;
49488;SDS011;35382;51.484;11.476;2023-03-24T00:09:34;4.90;;;2.60;;
49488;SDS011;35382;51.484;11.476;2023-03-24T00:11:16;4.70;;;2.58;;
49488;SDS011;35382;51.484;11.476;2023-03-24T00:12:59;4.57;;;2.60;;
49488;SDS011;35382;51.484;11.476;2023-03-24T00:14:40;3.95;;;2.78;;
49488;SDS011;35382;51.484;11.476;2023-03-24T00:16:21;5.10;;;2.70;;
49488;SDS011;35382;51.484;11.476;2023-03-24T00:18:02;4.45;;;2.40;;
49488;SDS011;35382;51.484;11.476;2023-03-24T00:19:43;5.50;;;3.03;;
49488;SDS011;35382;51.484;11.476;2023-03-24T00:21:24;4.47;;;2.70;;
49488;SDS011;35382;51.484;11.476;2023-03-24T00:23:05;4.30;;;2.80;;
49488;SDS011;35382;51.484;11.476;2023-03-24T00:24:46;5.00;;;2.60;;
49488;SDS011;35382;51.484;11.476;2023-03-24T00:26:30;4.18;;;2.70;;
49488;SDS011;35382;51.484;11.476;2023-03-24T00:28:11;4.78;;;2.65;;
49488;SDS011;35382;51.484;11.476;2023-03-24T00:29:53;5.35;;;2.90;;
49488;SDS011;35382;51.484;11.476;2023-03-24T00:31:34;4.10;;;2.50;;
49488;SDS011;35382;51.484;11.476;2023-03-24T00:33:19;5.15;;;2.65;;
49488;SDS011;35382;51.484;11.476;2023-03-24T00:35:00;4.50;;;2.92;;
49488;SDS011;35382;51.484;11.476;2023-03-24T00:36:41;5.68;;;3.00;;
49488;SDS011;35382;51.484;11.476;2023-03-24T00:38:22;5.07;;;2.83;;
49488;SDS011;35382;51.484;11.476;2023-03-24T00:40:03;4.63;;;2.88;;
49488;SDS011;35382;51.484;11.476;2023-03-24T00:41:47;4.93;;;3.08;;
49488;SDS011;35382;51.484;11.476;2023-03-24T00:43:28;4.57;;;2.80;;
49488;SDS011;35382;51.484;11.476;2023-03-24T00:45:11;5.35;;;3.05;;
49488;SDS011;35382;51.484;11.476;2023-03-24T00:46:57;6.50;;;3.53;;
49488;SDS011;35382;51.484;11.476;2023-03-24T00:48:39;8.30;;;3.88;;
49488;SDS011;35382;51.484;11.476;2023-03-24T00:50:21;9.80;;;3.75;;
49488;SDS011;35382;51.484;11.476;2023-03-24T00:52:08;5.82;;;3.50;;
49488;SDS011;35382;51.484;11.476;2023-03-24T00:53:50;6.05;;;3.50;;
49488;SDS011;35382;51.484;11.476;2023-03-24T00:55:37;6.03;;;3.58;;
49488;SDS011;35382;51.484;11.476;2023-03-24T00:57:18;6.22;;;3.25;;
49488;SDS011;35382;51.484;11.476;2023-03-24T00:59:02;5.55;;;3.42;;
49488;SDS011;35382;51.484;11.476;2023-03-24T01:00:44;6.68;;;3.45;;
49488;SDS011;35382;51.484;11.476;2023-03-24T01:02:27;5.40;;;3.67;;
49488;SDS011;35382;51.484;11.476;2023-03-24T01:04:08;5.30;;;2.92;;
49488;SDS011;35382;51.484;11.476;2023-03-24T01:05:58;6.38;;;3.80;;
49488;SDS011;35382;51.484;11.476;2023-03-24T01:07:40;6.60;;;3.80;;
49488;SDS011;35382;51.484;11.476;2023-03-24T01:09:24;5.88;;;3.80;;
49488;SDS011;35382;51.484;11.476;2023-03-24T01:11:05;5.28;;;3.42;;
49488;SDS011;35382;51.484;11.476;2023-03-24T01:12:46;6.50;;;3.75;;
49488;SDS011;35382;51.484;11.476;2023-03-24T01:14:28;7.03;;;3.50;;
49488;SDS011;35382;51.484;11.476;2023-03-24T01:16:10;6.57;;;3.53;;
49488;SDS011;35382;51.484;11.476;2023-03-24T01:17:51;5.95;;;3.72;;
49488;SDS011;35382;51.484;11.476;2023-03-24T01:19:32;7.18;;;3.58;;
49488;SDS011;35382;51.484;11.476;2023-03-24T01:21:13;5.80;;;3.83;;
49488;SDS011;35382;51.484;11.476;2023-03-24T01:22:54;5.57;;;4.00;;
49488;SDS011;35382;51.484;11.476;2023-03-24T01:24:35;5.70;;;3.80;;
49488;SDS011;35382;51.484;11.476;2023-03-24T01:26:16;6.22;;;3.80;;
49488;SDS011;35382;51.484;11.476;2023-03-24T01:27:57;5.93;;;3.42;;
49488;SDS011;35382;51.484;11.476;2023-03-24T01:29:38;5.78;;;3.30;;
49488;SDS011;35382;51.484;11.476;2023-03-24T01:31:19;8.55;;;3.90;;
49488;SDS011;35382;51.484;11.476;2023-03-24T01:33:00;4.43;;;3.20;;
49488;SDS011;35382;51.484;11.476;2023-03-24T01:34:41;5.47;;;3.60;;
49488;SDS011;35382;51.484;11.476;2023-03-24T01:36:22;6.00;;;4.20;;
49488;SDS011;35382;51.484;11.476;2023-03-24T01:38:04;7.45;;;4.72;;
49488;SDS011;35382;51.484;11.476;2023-03-24T01:39:46;6.32;;;4.53;;
49488;SDS011;35382;51.484;11.476;2023-03-24T01:41:30;7.55;;;4.90;;
49488;SDS011;35382;51.484;11.476;2023-03-24T01:43:17;7.25;;;5.05;;
49488;SDS011;35382;51.484;11.476;2023-03-24T01:47:18;7.68;;;4.95;;
49488;SDS011;35382;51.484;11.476;2023-03-24T01:49:01;10.00;;;5.63;;
49488;SDS011;35382;51.484;11.476;2023-03-24T01:50:47;7.13;;;4.97;;
49488;SDS011;35382;51.484;11.476;2023-03-24T01:52:33;8.77;;;5.90;;
49488;SDS011;35382;51.484;11.476;2023-03-24T01:54:17;7.40;;;4.88;;
49488;SDS011;35382;51.484;11.476;2023-03-24T01:56:04;9.18;;;6.13;;
49488;SDS011;35382;51.484;11.476;2023-03-24T01:57:52;7.97;;;5.65;;
49488;SDS011;35382;51.484;11.476;2023-03-24T01:59:40;10.02;;;5.35;;
49488;SDS011;35382;51.484;11.476;2023-03-24T02:01:43;8.50;;;5.32;;
49488;SDS011;35382;51.484;11.476;2023-03-24T02:03:38;7.60;;;5.43;;
49488;SDS011;35382;51.484;11.476;2023-03-24T02:05:24;8.80;;;5.57;;
49488;SDS011;35382;51.484;11.476;2023-03-24T02:09:02;9.63;;;6.15;;
49488;SDS011;35382;51.484;11.476;2023-03-24T02:10:44;9.38;;;6.03;;
49488;SDS011;35382;51.484;11.476;2023-03-24T02:12:26;8.98;;;6.10;;
49488;SDS011;35382;51.484;11.476;2023-03-24T02:14:09;7.35;;;5.78;;
49488;SDS011;35382;51.484;11.476;2023-03-24T02:31:47;8.05;;;6.32;;
49488;SDS011;35382;51.484;11.476;2023-03-24T02:35:51;9.25;;;6.22;;
49488;SDS011;35382;51.484;11.476;2023-03-24T02:41:47;9.27;;;6.47;;
49488;SDS011;35382;51.484;11.476;2023-03-24T02:43:41;8.52;;;5.50;;
49488;SDS011;35382;51.484;11.476;2023-03-24T02:45:25;8.13;;;5.72;;
49488;SDS011;35382;51.484;11.476;2023-03-24T02:47:17;7.47;;;5.32;;
49488;SDS011;35382;51.484;11.476;2023-03-24T02:51:08;8.98;;;6.03;;
49488;SDS011;35382;51.484;11.476;2023-03-24T02:53:00;9.77;;;6.07;;
49488;SDS011;35382;51.484;11.476;2023-03-24T02:55:05;9.70;;;5.88;;
49488;SDS011;35382;51.484;11.476;2023-03-24T02:56:55;7.85;;;6.10;;
49488;SDS011;35382;51.484;11.476;2023-03-24T02:59:39;8.60;;;6.15;;
49488;SDS011;35382;51.484;11.476;2023-03-24T03:03:49;9.48;;;6.22;;
49488;SDS011;35382;51.484;11.476;2023-03-24T03:07:20;8.55;;;5.78;;
49488;SDS011;35382;51.484;11.476;2023-03-24T03:09:10;9.35;;;6.38;;
49488;SDS011;35382;51.484;11.476;2023-03-24T03:10:54;10.55;;;6.35;;
49488;SDS011;35382;51.484;11.476;2023-03-24T03:12:40;9.55;;;6.10;;
49488;SDS011;35382;51.484;11.476;2023-03-24T03:14:37;7.68;;;5.78;;
49488;SDS011;35382;51.484;11.476;2023-03-24T03:18:08;8.52;;;5.22;;
49488;SDS011;35382;51.484;11.476;2023-03-24T03:19:55;8.10;;;5.53;;
49488;SDS011;35382;51.484;11.476;2023-03-24T03:21:42;10.23;;;5.97;;
49488;SDS011;35382;51.484;11.476;2023-03-24T03:23:29;6.55;;;4.88;;
49488;SDS011;35382;51.484;11.476;2023-03-24T03:25:15;8.75;;;5.60;;
49488;SDS011;35382;51.484;11.476;2023-03-24T03:27:06;8.77;;;5.20;;
49488;SDS011;35382;51.484;11.476;2023-03-24T03:28:57;7.53;;;4.95;;
49488;SDS011;35382;51.484;11.476;2023-03-24T03:30:45;7.90;;;5.13;;
49488;SDS011;35382;51.484;11.476;2023-03-24T03:32:30;8.15;;;5.05;;
49488;SDS011;35382;51.484;11.476;2023-03-24T03:34:19;6.90;;;4.60;;
49488;SDS011;35382;51.484;11.476;2023-03-24T03:36:23;7.80;;;5.22;;
49488;SDS011;35382;51.484;11.476;2023-03-24T03:38:13;7.80;;;5.18;;
49488;SDS011;35382;51.484;11.476;2023-03-24T03:40:01;8.05;;;5.45;;
49488;SDS011;35382;51.484;11.476;2023-03-24T03:41:47;7.45;;;4.70;;
49488;SDS011;35382;51.484;11.476;2023-03-24T03:43:29;6.95;;;4.97;;
49488;SDS011;35382;51.484;11.476;2023-03-24T03:45:11;8.00;;;4.95;;
49488;SDS011;35382;51.484;11.476;2023-03-24T03:46:54;7.07;;;4.80;;
49488;SDS011;35382;51.484;11.476;2023-03-24T03:48:44;7.55;;;5.07;;
49488;SDS011;35382;51.484;11.476;2023-03-24T03:50:27;9.48;;;5.75;;
49488;SDS011;35382;51.484;11.476;2023-03-24T03:52:11;7.78;;;4.60;;
49488;SDS011;35382;51.484;11.476;2023-03-24T03:53:57;8.48;;;5.20;;
49488;SDS011;35382;51.484;11.476;2023-03-24T03:55:42;7.07;;;4.80;;
49488;SDS011;35382;51.484;11.476;2023-03-24T03:57:23;6.90;;;4.88;;
49488;SDS011;35382;51.484;11.476;2023-03-24T04:01:08;7.80;;;4.75;;
49488;SDS011;35382;51.484;11.476;2023-03-24T04:03:30;6.88;;;4.47;;
49488;SDS011;35382;51.484;11.476;2023-03-24T04:05:35;7.10;;;4.97;;
49488;SDS011;35382;51.484;11.476;2023-03-24T04:07:34;7.22;;;4.60;;
49488;SDS011;35382;51.484;11.476;2023-03-24T04:09:53;7.47;;;4.95;;
49488;SDS011;35382;51.484;11.476;2023-03-24T04:11:53;7.35;;;5.03;;
49488;SDS011;35382;51.484;11.476;2023-03-24T04:14:11;7.13;;;4.97;;
49488;SDS011;35382;51.484;11.476;2023-03-24T04:18:19;6.63;;;4.70;;
49488;SDS011;35382;51.484;11.476;2023-03-24T04:20:18;8.75;;;5.22;;
49488;SDS011;35382;51.484;11.476;2023-03-24T04:22:12;7.47;;;4.35;;
49488;SDS011;35382;51.484;11.476;2023-03-24T04:27:49;6.05;;;4.75;;
49488;SDS011;35382;51.484;11.476;2023-03-24T04:29:52;6.88;;;5.15;;
49488;SDS011;35382;51.484;11.476;2023-03-24T04:31:47;9.90;;;6.20;;
49488;SDS011;35382;51.484;11.476;2023-03-24T04:33:41;8.88;;;6.20;;
49488;SDS011;35382;51.484;11.476;2023-03-24T04:35:32;8.60;;;6.30;;
49488;SDS011;35382;51.484;11.476;2023-03-24T04:37:34;8.13;;;6.32;;
49488;SDS011;35382;51.484;11.476;2023-03-24T04:39:26;9.65;;;7.40;;
49488;SDS011;35382;51.484;11.476;2023-03-24T04:41:10;11.38;;;8.18;;
49488;SDS011;35382;51.484;11.476;2023-03-24T04:43:02;8.40;;;6.10;;
49488;SDS011;35382;51.484;11.476;2023-03-24T04:44:47;8.20;;;6.35;;
49488;SDS011;35382;51.484;11.476;2023-03-24T04:46:50;9.80;;;6.93;;
49488;SDS011;35382;51.484;11.476;2023-03-24T04:48:34;9.95;;;6.63;;
49488;SDS011;35382;51.484;11.476;2023-03-24T04:50:28;8.50;;;6.53;;
49488;SDS011;35382;51.484;11.476;2023-03-24T04:52:24;8.65;;;6.25;;
49488;SDS011;35382;51.484;11.476;2023-03-24T04:54:07;7.50;;;5.28;;
49488;SDS011;35382;51.484;11.476;2023-03-24T04:58:18;7.15;;;5.30;;
49488;SDS011;35382;51.484;11.476;2023-03-24T05:00:00;7.90;;;5.18;;
49488;SDS011;35382;51.484;11.476;2023-03-24T05:01:43;6.80;;;5.20;;
49488;SDS011;35382;51.484;11.476;2023-03-24T05:03:51;7.22;;;5.30;;
49488;SDS011;35382;51.484;11.476;2023-03-24T05:05:32;6.50;;;5.00;;
49488;SDS011;35382;51.484;11.476;2023-03-24T05:07:13;7.05;;;5.20;;
49488;SDS011;35382;51.484;11.476;2023-03-24T05:08:56;7.80;;;5.32;;
49488;SDS011;35382;51.484;11.476;2023-03-24T05:10:42;6.15;;;5.13;;
49488;SDS011;35382;51.484;11.476;2023-03-24T05:12:23;7.50;;;5.10;;
49488;SDS011;35382;51.484;11.476;2023-03-24T05:14:39;7.93;;;5.25;;
49488;SDS011;35382;51.484;11.476;2023-03-24T05:16:21;7.63;;;5.03;;
49488;SDS011;35382;51.484;11.476;2023-03-24T05:18:11;8.93;;;5.47;;
49488;SDS011;35382;51.484;11.476;2023-03-24T05:19:53;7.95;;;5.50;;
49488;SDS011;35382;51.484;11.476;2023-03-24T05:21:35;8.38;;;5.65;;
49488;SDS011;35382;51.484;11.476;2023-03-24T05:23:17;6.70;;;5.05;;
49488;SDS011;35382;51.484;11.476;2023-03-24T05:25:00;6.95;;;5.13;;
49488;SDS011;35382;51.484;11.476;2023-03-24T05:26:41;8.02;;;5.20;;
49488;SDS011;35382;51.484;11.476;2023-03-24T05:28:30;7.35;;;5.20;;
49488;SDS011;35382;51.484;11.476;2023-03-24T05:30:12;7.20;;;5.18;;
49488;SDS011;35382;51.484;11.476;2023-03-24T05:31:53;8.48;;;5.32;;
49488;SDS011;35382;51.484;11.476;2023-03-24T05:33:36;8.60;;;5.65;;
49488;SDS011;35382;51.484;11.476;2023-03-24T05:35:17;7.47;;;5.78;;
49488;SDS011;35382;51.484;11.476;2023-03-24T05:36:58;8.18;;;5.65;;
49488;SDS011;35382;51.484;11.476;2023-03-24T05:38:39;7.13;;;5.28;;
49488;SDS011;35382;51.484;11.476;2023-03-24T05:40:20;6.50;;;4.93;;
49488;SDS011;35382;51.484;11.476;2023-03-24T05:42:24;8.20;;;5.93;;
49488;SDS011;35382;51.484;11.476;2023-03-24T05:44:07;7.93;;;6.07;;
49488;SDS011;35382;51.484;11.476;2023-03-24T05:45:48;9.23;;;5.65;;
49488;SDS011;35382;51.484;11.476;2023-03-24T05:47:40;8.88;;;5.95;;
49488;SDS011;35382;51.484;11.476;2023-03-24T05:49:21;8.40;;;5.68;;
49488;SDS011;35382;51.484;11.476;2023-03-24T05:51:02;8.32;;;5.20;;
49488;SDS011;35382;51.484;11.476;2023-03-24T05:52:43;6.55;;;4.50;;
49488;SDS011;35382;51.484;11.476;2023-03-24T05:54:50;7.68;;;4.90;;
49488;SDS011;35382;51.484;11.476;2023-03-24T05:56:35;7.03;;;4.75;;
49488;SDS011;35382;51.484;11.476;2023-03-24T05:58:22;6.32;;;4.80;;
49488;SDS011;35382;51.484;11.476;2023-03-24T06:00:05;7.10;;;4.50;;
49488;SDS011;35382;51.484;11.476;2023-03-24T06:01:55;6.90;;;4.93;;
49488;SDS011;35382;51.484;11.476;2023-03-24T06:03:53;7.00;;;4.35;;
49488;SDS011;35382;51.484;11.476;2023-03-24T06:05:34;6.03;;;4.38;;
49488;SDS011;35382;51.484;11.476;2023-03-24T06:07:15;8.00;;;4.60;;
49488;SDS011;35382;51.484;11.476;2023-03-24T06:08:58;7.40;;;4.28;;
49488;SDS011;35382;51.484;11.476;2023-03-24T06:10:45;8.23;;;5.20;;
49488;SDS011;35382;51.484;11.476;2023-03-24T06:12:28;7.78;;;4.45;;
49488;SDS011;35382;51.484;11.476;2023-03-24T06:14:14;6.30;;;4.43;;
49488;SDS011;35382;51.484;11.476;2023-03-24T06:16:11;7.57;;;4.60;;
49488;SDS011;35382;51.484;11.476;2023-03-24T06:17:57;7.53;;;4.75;;
49488;SDS011;35382;51.484;11.476;2023-03-24T06:19:47;7.03;;;4.80;;
49488;SDS011;35382;51.484;11.476;2023-03-24T06:21:49;7.78;;;4.85;;
49488;SDS011;35382;51.484;11.476;2023-03-24T06:23:32;7.95;;;4.60;;
49488;SDS011;35382;51.484;11.476;2023-03-24T06:25:18;6.53;;;4.55;;
49488;SDS011;35382;51.484;11.476;2023-03-24T06:27:14;7.38;;;4.38;;
49488;SDS011;35382;51.484;11.476;2023-03-24T06:28:58;7.00;;;4.43;;
49488;SDS011;35382;51.484;11.476;2023-03-24T06:30:43;7.43;;;4.88;;
49488;SDS011;35382;51.484;11.476;2023-03-24T06:32:26;7.93;;;4.78;;
49488;SDS011;35382;51.484;11.476;2023-03-24T06:34:07;8.15;;;5.03;;
49488;SDS011;35382;51.484;11.476;2023-03-24T06:35:48;8.32;;;5.35;;
49488;SDS011;35382;51.484;11.476;2023-03-24T06:37:31;8.10;;;5.25;;
49488;SDS011;35382;51.484;11.476;2023-03-24T06:39:13;7.72;;;4.70;;
49488;SDS011;35382;51.484;11.476;2023-03-24T06:40:58;7.03;;;4.90;;
49488;SDS011;35382;51.484;11.476;2023-03-24T06:42:40;7.93;;;5.25;;
49488;SDS011;35382;51.484;11.476;2023-03-24T06:44:21;8.55;;;5.38;;
49488;SDS011;35382;51.484;11.476;2023-03-24T06:46:02;7.90;;;5.00;;
49488;SDS011;35382;51.484;11.476;2023-03-24T06:47:44;7.75;;;4.82;;
49488;SDS011;35382;51.484;11.476;2023-03-24T06:49:25;10.05;;;4.95;;
49488;SDS011;35382;51.484;11.476;2023-03-24T06:51:06;8.43;;;5.60;;
49488;SDS011;35382;51.484;11.476;2023-03-24T06:52:47;8.27;;;5.30;;
49488;SDS011;35382;51.484;11.476;2023-03-24T06:54:32;8.45;;;5.82;;
49488;SDS011;35382;51.484;11.476;2023-03-24T06:56:15;8.95;;;5.88;;
49488;SDS011;35382;51.484;11.476;2023-03-24T06:58:01;7.25;;;5.10;;
49488;SDS011;35382;51.484;11.476;2023-03-24T06:59:54;9.95;;;5.15;;
49488;SDS011;35382;51.484;11.476;2023-03-24T07:01:35;11.05;;;6.63;;
49488;SDS011;35382;51.484;11.476;2023-03-24T07:03:31;8.48;;;6.18;;
49488;SDS011;35382;51.484;11.476;2023-03-24T07:05:38;7.57;;;5.53;;
49488;SDS011;35382;51.484;11.476;2023-03-24T07:07:20;7.93;;;5.35;;
49488;SDS011;35382;51.484;11.476;2023-03-24T07:09:15;8.73;;;5.95;;
49488;SDS011;35382;51.484;11.476;2023-03-24T07:10:56;8.80;;;6.20;;
49488;SDS011;35382;51.484;11.476;2023-03-24T07:12:37;10.40;;;5.90;;
49488;SDS011;35382;51.484;11.476;2023-03-24T07:14:18;7.88;;;5.55;;
49488;SDS011;35382;51.484;11.476;2023-03-24T07:16:01;9.10;;;5.80;;
49488;SDS011;35382;51.484;11.476;2023-03-24T07:17:43;7.97;;;5.90;;
49488;SDS011;35382;51.484;11.476;2023-03-24T07:19:43;8.70;;;5.35;;
49488;SDS011;35382;51.484;11.476;2023-03-24T07:21:49;8.48;;;5.68;;
49488;SDS011;35382;51.484;11.476;2023-03-24T07:23:34;8.30;;;5.75;;
49488;SDS011;35382;51.484;11.476;2023-03-24T07:25:29;8.57;;;5.50;;
49488;SDS011;35382;51.484;11.476;2023-03-24T07:27:22;8.40;;;5.82;;
49488;SDS011;35382;51.484;11.476;2023-03-24T07:29:03;10.65;;;6.30;;
49488;SDS011;35382;51.484;11.476;2023-03-24T07:31:09;9.30;;;5.65;;
49488;SDS011;35382;51.484;11.476;2023-03-24T07:32:54;8.38;;;5.45;;
49488;SDS011;35382;51.484;11.476;2023-03-24T07:34:36;9.55;;;6.20;;
49488;SDS011;35382;51.484;11.476;2023-03-24T07:36:18;6.88;;;5.00;;
49488;SDS011;35382;51.484;11.476;2023-03-24T07:37:59;7.28;;;5.13;;
49488;SDS011;35382;51.484;11.476;2023-03-24T07:39:41;8.65;;;5.60;;
49488;SDS011;35382;51.484;11.476;2023-03-24T07:41:22;7.57;;;5.47;;
49488;SDS011;35382;51.484;11.476;2023-03-24T07:43:09;7.53;;;5.53;;
49488;SDS011;35382;51.484;11.476;2023-03-24T07:45:16;8.23;;;5.28;;
49488;SDS011;35382;51.484;11.476;2023-03-24T07:46:57;7.45;;;4.80;;
49488;SDS011;35382;51.484;11.476;2023-03-24T07:48:38;7.80;;;5.28;;
49488;SDS011;35382;51.484;11.476;2023-03-24T07:50:19;7.32;;;4.93;;
49488;SDS011;35382;51.484;11.476;2023-03-24T07:52:00;7.45;;;4.85;;
49488;SDS011;35382;51.484;11.476;2023-03-24T07:53:55;7.22;;;5.00;;
49488;SDS011;35382;51.484;11.476;2023-03-24T07:55:45;9.00;;;5.15;;
49488;SDS011;35382;51.484;11.476;2023-03-24T07:57:30;7.00;;;4.50;;
49488;SDS011;35382;51.484;11.476;2023-03-24T07:59:11;6.80;;;4.88;;
49488;SDS011;35382;51.484;11.476;2023-03-24T08:01:15;7.18;;;4.65;;
49488;SDS011;35382;51.484;11.476;2023-03-24T08:03:00;6.25;;;4.57;;
49488;SDS011;35382;51.484;11.476;2023-03-24T08:05:13;6.65;;;4.40;;
49488;SDS011;35382;51.484;11.476;2023-03-24T08:07:07;7.85;;;4.55;;
49488;SDS011;35382;51.484;11.476;2023-03-24T08:08:49;6.13;;;4.35;;
49488;SDS011;35382;51.484;11.476;2023-03-24T08:10:30;7.70;;;4.18;;
49488;SDS011;35382;51.484;11.476;2023-03-24T08:12:11;5.60;;;4.25;;
49488;SDS011;35382;51.484;11.476;2023-03-24T08:13:51;6.97;;;4.43;;
49488;SDS011;35382;51.484;11.476;2023-03-24T08:15:32;8.35;;;4.18;;
49488;SDS011;35382;51.484;11.476;2023-03-24T08:17:13;6.03;;;4.25;;
49488;SDS011;35382;51.484;11.476;2023-03-24T08:18:54;7.75;;;4.00;;
49488;SDS011;35382;51.484;11.476;2023-03-24T08:20:40;6.18;;;4.15;;
49488;SDS011;35382;51.484;11.476;2023-03-24T08:22:21;5.15;;;3.50;;
49488;SDS011;35382;51.484;11.476;2023-03-24T08:24:02;8.27;;;3.90;;
49488;SDS011;35382;51.484;11.476;2023-03-24T08:25:43;5.47;;;4.03;;
49488;SDS011;35382;51.484;11.476;2023-03-24T08:27:24;5.47;;;3.80;;
49488;SDS011;35382;51.484;11.476;2023-03-24T08:29:05;5.72;;;4.10;;
49488;SDS011;35382;51.484;11.476;2023-03-24T08:30:46;8.60;;;3.92;;
49488;SDS011;35382;51.484;11.476;2023-03-24T08:32:27;5.97;;;3.13;;
49488;SDS011;35382;51.484;11.476;2023-03-24T08:34:08;6.15;;;3.72;;
49488;SDS011;35382;51.484;11.476;2023-03-24T08:35:51;5.15;;;3.55;;
49488;SDS011;35382;51.484;11.476;2023-03-24T08:37:37;7.22;;;3.67;;
49488;SDS011;35382;51.484;11.476;2023-03-24T08:39:18;5.32;;;3.50;;
49488;SDS011;35382;51.484;11.476;2023-03-24T08:41:00;7.10;;;3.65;;
49488;SDS011;35382;51.484;11.476;2023-03-24T08:42:46;4.93;;;3.40;;
49488;SDS011;35382;51.484;11.476;2023-03-24T08:44:28;6.68;;;3.20;;
49488;SDS011;35382;51.484;11.476;2023-03-24T08:46:09;6.47;;;3.65;;
49488;SDS011;35382;51.484;11.476;2023-03-24T08:47:50;6.10;;;3.13;;
49488;SDS011;35382;51.484;11.476;2023-03-24T08:49:31;4.90;;;3.38;;
49488;SDS011;35382;51.484;11.476;2023-03-24T08:51:13;6.07;;;3.10;;
49488;SDS011;35382;51.484;11.476;2023-03-24T08:52:56;7.07;;;3.00;;
49488;SDS011;35382;51.484;11.476;2023-03-24T08:54:37;5.90;;;3.28;;
49488;SDS011;35382;51.484;11.476;2023-03-24T08:56:18;5.57;;;3.33;;
49488;SDS011;35382;51.484;11.476;2023-03-24T08:58:00;4.60;;;2.80;;
49488;SDS011;35382;51.484;11.476;2023-03-24T08:59:41;5.07;;;3.13;;
49488;SDS011;35382;51.484;11.476;2023-03-24T09:01:22;5.40;;;3.45;;
49488;SDS011;35382;51.484;11.476;2023-03-24T09:03:03;4.68;;;3.00;;
49488;SDS011;35382;51.484;11.476;2023-03-24T09:04:46;5.85;;;3.40;;
49488;SDS011;35382;51.484;11.476;2023-03-24T09:06:27;6.07;;;3.05;;
49488;SDS011;35382;51.484;11.476;2023-03-24T09:08:08;4.43;;;2.72;;
49488;SDS011;35382;51.484;11.476;2023-03-24T09:09:50;5.45;;;2.80;;
49488;SDS011;35382;51.484;11.476;2023-03-24T09:11:31;6.20;;;2.95;;
49488;SDS011;35382;51.484;11.476;2023-03-24T09:13:11;4.97;;;3.10;;
49488;SDS011;35382;51.484;11.476;2023-03-24T09:14:53;4.60;;;2.90;;
49488;SDS011;35382;51.484;11.476;2023-03-24T09:16:34;6.20;;;2.80;;
49488;SDS011;35382;51.484;11.476;2023-03-24T09:18:14;4.22;;;2.50;;
49488;SDS011;35382;51.484;11.476;2023-03-24T09:19:55;5.00;;;3.10;;
49488;SDS011;35382;51.484;11.476;2023-03-24T09:21:36;5.25;;;2.83;;
49488;SDS011;35382;51.484;11.476;2023-03-24T09:23:18;5.93;;;3.15;;
49488;SDS011;35382;51.484;11.476;2023-03-24T09:24:59;5.25;;;3.30;;
49488;SDS011;35382;51.484;11.476;2023-03-24T09:26:40;4.68;;;3.25;;
49488;SDS011;35382;51.484;11.476;2023-03-24T09:28:21;6.07;;;2.70;;
49488;SDS011;35382;51.484;11.476;2023-03-24T09:30:03;4.40;;;2.60;;
49488;SDS011;35382;51.484;11.476;2023-03-24T09:31:44;4.25;;;1.70;;
49488;SDS011;35382;51.484;11.476;2023-03-24T09:33:25;4.03;;;1.38;;
49488;SDS011;35382;51.484;11.476;2023-03-24T09:35:06;3.58;;;1.45;;
49488;SDS011;35382;51.484;11.476;2023-03-24T09:36:48;3.70;;;1.50;;
49488;SDS011;35382;51.484;11.476;2023-03-24T09:38:29;4.80;;;1.70;;
49488;SDS011;35382;51.484;11.476;2023-03-24T09:40:16;4.43;;;2.00;;
49488;SDS011;35382;51.484;11.476;2023-03-24T09:42:00;7.20;;;1.90;;
49488;SDS011;35382;51.484;11.476;2023-03-24T09:43:41;6.35;;;1.50;;
49488;SDS011;35382;51.484;11.476;2023-03-24T09:45:26;3.10;;;1.60;;
49488;SDS011;35382;51.484;11.476;2023-03-24T09:47:15;4.00;;;1.67;;
49488;SDS011;35382;51.484;11.476;2023-03-24T09:49:01;5.20;;;2.03;;
49488;SDS011;35382;51.484;11.476;2023-03-24T09:50:51;3.45;;;1.58;;
49488;SDS011;35382;51.484;11.476;2023-03-24T09:52:39;3.08;;;1.40;;
49488;SDS011;35382;51.484;11.476;2023-03-24T09:54:27;4.82;;;1.60;;
49488;SDS011;35382;51.484;11.476;2023-03-24T09:56:14;2.95;;;1.42;;
49488;SDS011;35382;51.484;11.476;2023-03-24T09:57:59;5.88;;;1.98;;
49488;SDS011;35382;51.484;11.476;2023-03-24T09:59:44;4.85;;;2.00;;
49488;SDS011;35382;51.484;11.476;2023-03-24T10:01:25;3.97;;;2.20;;
49488;SDS011;35382;51.484;11.476;2023-03-24T10:05:05;3.50;;;1.70;;
49488;SDS011;35382;51.484;11.476;2023-03-24T10:06:57;4.55;;;2.15;;
49488;SDS011;35382;51.484;11.476;2023-03-24T10:08:43;5.05;;;1.88;;
49488;SDS011;35382;51.484;11.476;2023-03-24T10:10:35;4.13;;;1.80;;
49488;SDS011;35382;51.484;11.476;2023-03-24T10:12:39;3.65;;;2.03;;
49488;SDS011;35382;51.484;11.476;2023-03-24T10:18:39;3.88;;;1.70;;
49488;SDS011;35382;51.484;11.476;2023-03-24T10:22:43;4.70;;;2.03;;
49488;SDS011;35382;51.484;11.476;2023-03-24T10:26:38;4.22;;;2.10;;
49488;SDS011;35382;51.484;11.476;2023-03-24T10:30:34;3.88;;;2.10;;
49488;SDS011;35382;51.484;11.476;2023-03-24T10:32:20;3.45;;;2.03;;
49488;SDS011;35382;51.484;11.476;2023-03-24T10:34:03;4.07;;;2.15;;
49488;SDS011;35382;51.484;11.476;2023-03-24T10:35:50;4.88;;;2.05;;
49488;SDS011;35382;51.484;11.476;2023-03-24T10:37:55;4.45;;;2.20;;
49488;SDS011;35382;51.484;11.476;2023-03-24T10:39:39;3.53;;;1.90;;
49488;SDS011;35382;51.484;11.476;2023-03-24T10:41:21;6.53;;;1.98;;
49488;SDS011;35382;51.484;11.476;2023-03-24T10:43:03;3.53;;;2.10;;
49488;SDS011;35382;51.484;11.476;2023-03-24T10:44:45;4.30;;;2.20;;
49488;SDS011;35382;51.484;11.476;2023-03-24T10:46:29;3.65;;;2.00;;
49488;SDS011;35382;51.484;11.476;2023-03-24T10:48:11;3.88;;;1.98;;
49488;SDS011;35382;51.484;11.476;2023-03-24T10:49:56;5.70;;;2.60;;
49488;SDS011;35382;51.484;11.476;2023-03-24T10:51:43;4.20;;;2.30;;
49488;SDS011;35382;51.484;11.476;2023-03-24T10:53:41;4.93;;;2.40;;
49488;SDS011;35382;51.484;11.476;2023-03-24T10:55:27;5.00;;;1.90;;
49488;SDS011;35382;51.484;11.476;2023-03-24T10:57:16;4.40;;;2.40;;
49488;SDS011;35382;51.484;11.476;2023-03-24T10:58:57;5.45;;;2.38;;
49488;SDS011;35382;51.484;11.476;2023-03-24T11:00:39;4.55;;;2.15;;
49488;SDS011;35382;51.484;11.476;2023-03-24T11:02:24;4.60;;;2.50;;
49488;SDS011;35382;51.484;11.476;2023-03-24T11:04:15;3.53;;;2.25;;
49488;SDS011;35382;51.484;11.476;2023-03-24T11:05:58;4.15;;;2.45;;
49488;SDS011;35382;51.484;11.476;2023-03-24T11:07:41;4.07;;;2.20;;
49488;SDS011;35382;51.484;11.476;2023-03-24T11:09:26;4.88;;;2.30;;
49488;SDS011;35382;51.484;11.476;2023-03-24T11:13:00;4.65;;;2.40;;
49488;SDS011;35382;51.484;11.476;2023-03-24T11:14:43;7.18;;;2.55;;
49488;SDS011;35382;51.484;11.476;2023-03-24T11:16:29;5.13;;;2.65;;
49488;SDS011;35382;51.484;11.476;2023-03-24T11:18:15;4.78;;;2.42;;
49488;SDS011;35382;51.484;11.476;2023-03-24T11:19:56;3.85;;;2.53;;
49488;SDS011;35382;51.484;11.476;2023-03-24T11:21:40;4.13;;;2.35;;
49488;SDS011;35382;51.484;11.476;2023-03-24T11:23:29;4.53;;;2.15;;
49488;SDS011;35382;51.484;11.476;2023-03-24T11:25:12;4.65;;;2.55;;
49488;SDS011;35382;51.484;11.476;2023-03-24T11:27:02;5.10;;;2.60;;
49488;SDS011;35382;51.484;11.476;2023-03-24T11:30:44;5.47;;;3.00;;